createdAt,value
2022-07-26T00:01:36.729Z,10.80
2022-07-26T00:06:39.246Z,12.90
2022-07-26T00:11:41.114Z,10.95
2022-07-26T00:16:43.116Z,10.25
2022-07-26T00:21:45.594Z,11.38
2022-07-26T00:26:47.434Z,9.82
2022-07-26T00:31:49.330Z,10.00
2022-07-26T00:36:51.155Z,9.43
2022-07-26T00:41:52.891Z,9.13
2022-07-26T00:46:54.937Z,9.40
2022-07-26T00:51:56.705Z,10.77
2022-07-26T00:56:58.863Z,9.93
2022-07-26T01:02:01.390Z,9.25
2022-07-26T01:07:15.324Z,8.90
2022-07-26T01:12:18.283Z,8.50
2022-07-26T01:17:19.995Z,9.25
2022-07-26T01:22:21.829Z,8.38
2022-07-26T01:27:23.944Z,8.98
2022-07-26T01:32:25.729Z,9.40
2022-07-26T01:37:27.535Z,7.38
2022-07-26T01:42:29.342Z,8.60
2022-07-26T01:47:31.209Z,8.23
2022-07-26T01:52:33.421Z,7.20
2022-07-26T01:57:35.223Z,8.07
2022-07-26T02:02:37.168Z,8.48
2022-07-26T02:07:42.834Z,8.15
2022-07-26T02:12:46.384Z,10.57
2022-07-26T02:17:48.093Z,11.13
2022-07-26T02:22:49.800Z,11.27
2022-07-26T02:27:51.477Z,8.70
2022-07-26T02:32:53.307Z,11.65
2022-07-26T02:37:54.976Z,10.75
2022-07-26T02:42:56.837Z,11.40
2022-07-26T02:47:58.906Z,10.77
2022-07-26T02:53:00.811Z,10.32
2022-07-26T02:58:02.532Z,9.77
2022-07-26T03:03:04.290Z,9.63
2022-07-26T03:08:07.091Z,9.23
2022-07-26T03:13:08.904Z,7.35
2022-07-26T03:18:10.652Z,7.85
2022-07-26T03:23:12.352Z,9.82
2022-07-26T03:28:19.136Z,8.95
2022-07-26T03:33:21.371Z,7.82
2022-07-26T03:38:23.092Z,8.95
2022-07-26T03:43:24.775Z,8.00
2022-07-26T03:48:27.142Z,7.80
2022-07-26T03:53:29.004Z,6.55
2022-07-26T03:58:30.755Z,7.35
2022-07-26T04:03:32.523Z,7.90
2022-07-26T04:08:34.242Z,7.35
2022-07-26T04:13:36.657Z,6.30
2022-07-26T04:18:38.436Z,8.27
2022-07-26T04:23:40.098Z,7.28
2022-07-26T04:28:42.680Z,9.95
2022-07-26T04:33:44.511Z,7.30
2022-07-26T04:38:46.267Z,7.68
2022-07-26T04:43:48.023Z,6.65
2022-07-26T04:48:49.898Z,6.32
2022-07-26T04:53:51.817Z,7.38
2022-07-26T04:58:53.537Z,4.85
2022-07-26T05:03:55.247Z,10.05
2022-07-26T05:08:56.973Z,11.50
2022-07-26T05:13:58.778Z,7.53
2022-07-26T05:19:00.533Z,5.20
2022-07-26T05:24:02.310Z,5.03
2022-07-26T05:29:04.177Z,6.32
2022-07-26T05:34:06.289Z,8.75
2022-07-26T05:39:10.594Z,5.82
2022-07-26T05:44:15.954Z,5.32
2022-07-26T05:49:20.435Z,4.20
2022-07-26T05:54:23.052Z,3.85
2022-07-26T05:59:25.033Z,3.83
2022-07-26T06:04:27.517Z,4.88
2022-07-26T06:09:29.358Z,7.10
2022-07-26T06:14:31.155Z,3.60
2022-07-26T06:19:33.152Z,5.93
2022-07-26T06:24:34.931Z,5.53
2022-07-26T06:29:36.724Z,5.55
2022-07-26T06:34:38.557Z,4.82
2022-07-26T06:39:40.304Z,5.80
2022-07-26T06:44:42.181Z,3.72
2022-07-26T06:49:44.783Z,3.97
2022-07-26T06:54:46.568Z,6.38
2022-07-26T06:59:48.348Z,5.25
2022-07-26T07:04:50.125Z,5.50
2022-07-26T07:09:51.872Z,7.60
2022-07-26T07:14:53.588Z,5.03
2022-07-26T07:19:55.411Z,3.42
2022-07-26T07:24:57.684Z,5.63
2022-07-26T07:29:59.391Z,6.68
2022-07-26T07:35:01.120Z,4.65
2022-07-26T07:40:09.941Z,5.15
2022-07-26T07:45:11.871Z,5.88
2022-07-26T07:50:13.666Z,3.90
2022-07-26T07:55:36.697Z,5.53
2022-07-26T08:00:37.471Z,4.57
2022-07-26T08:05:40.343Z,2.42
2022-07-26T08:10:51.464Z,2.53
2022-07-26T08:15:55.817Z,3.47
2022-07-26T08:20:57.996Z,2.95
2022-07-26T08:26:04.726Z,1.73
2022-07-26T08:31:08.542Z,3.13
2022-07-26T08:36:10.271Z,2.35
2022-07-26T08:41:12.114Z,3.20
2022-07-26T08:46:14.331Z,4.53
2022-07-26T08:51:17.336Z,2.67
2022-07-26T08:56:19.044Z,4.57
2022-07-26T09:01:21.069Z,2.67
2022-07-26T09:06:28.170Z,3.50
2022-07-26T09:11:32.215Z,2.85
2022-07-26T09:16:39.215Z,5.65
2022-07-26T09:21:41.558Z,4.85
2022-07-26T09:26:55.875Z,4.82
2022-07-26T09:32:11.133Z,2.88
2022-07-26T09:37:13.356Z,5.75
2022-07-26T09:42:28.531Z,3.47
2022-07-26T09:47:39.208Z,4.80
2022-07-26T09:52:41.146Z,4.35
2022-07-26T09:57:42.876Z,3.50
2022-07-26T10:02:44.775Z,3.70
2022-07-26T10:07:46.649Z,2.33
2022-07-26T10:12:51.545Z,3.55
2022-07-26T10:17:54.520Z,3.35
2022-07-26T10:22:56.205Z,4.40
2022-07-26T10:27:58.413Z,2.83
2022-07-26T10:33:08.979Z,2.65
2022-07-26T10:38:27.335Z,1.88
2022-07-26T10:43:40.795Z,1.95
2022-07-26T10:48:57.242Z,1.92
2022-07-26T10:54:07.285Z,3.10
2022-07-26T10:59:09.378Z,1.77
2022-07-26T11:04:21.953Z,2.13
2022-07-26T11:09:23.673Z,3.67
2022-07-26T11:14:26.352Z,2.92
2022-07-26T11:19:29.306Z,2.33
2022-07-26T11:24:31.760Z,2.95
2022-07-26T11:29:38.246Z,2.78
2022-07-26T11:34:44.921Z,3.95
2022-07-26T11:39:47.385Z,2.90
2022-07-26T11:44:50.737Z,2.92
2022-07-26T11:50:11.605Z,2.10
2022-07-26T11:55:14.487Z,2.95
2022-07-26T12:00:18.205Z,2.03
2022-07-26T12:05:23.437Z,2.58
2022-07-26T12:10:26.322Z,3.45
2022-07-26T12:15:28.684Z,4.03
2022-07-26T12:20:30.615Z,2.90
2022-07-26T12:25:32.800Z,3.17
2022-07-26T12:30:37.472Z,2.80
2022-07-26T12:35:39.383Z,3.42
2022-07-26T12:40:41.952Z,2.92
2022-07-26T12:45:43.888Z,4.32
2022-07-26T12:50:45.809Z,2.60
2022-07-26T12:55:47.591Z,3.03
2022-07-26T13:00:49.513Z,4.40
2022-07-26T13:05:51.276Z,4.65
2022-07-26T13:10:56.788Z,2.90
2022-07-26T13:16:01.708Z,2.63
2022-07-26T13:21:03.423Z,4.55
2022-07-26T13:26:09.139Z,3.78
2022-07-26T13:31:12.749Z,4.78
2022-07-26T13:36:14.652Z,6.55
2022-07-26T13:41:17.357Z,7.72
2022-07-26T13:46:21.172Z,7.88
2022-07-26T13:51:23.093Z,5.60
2022-07-26T13:56:24.919Z,3.45
2022-07-26T14:01:44.532Z,4.90
2022-07-26T14:06:47.409Z,4.93
2022-07-26T14:11:49.435Z,3.85
2022-07-26T14:16:51.330Z,4.78
2022-07-26T14:21:59.268Z,3.80
2022-07-26T14:27:02.977Z,3.17
2022-07-26T14:32:05.275Z,3.00
2022-07-26T14:37:09.022Z,3.05
2022-07-26T14:42:29.393Z,3.60
2022-07-26T14:47:31.125Z,5.82
2022-07-26T14:52:32.877Z,4.28
2022-07-26T14:57:39.071Z,3.20
2022-07-26T15:02:43.579Z,4.20
2022-07-26T15:07:45.849Z,2.63
2022-07-26T15:12:47.736Z,3.30
2022-07-26T15:17:49.674Z,2.17
2022-07-26T15:22:54.507Z,5.13
2022-07-26T15:27:56.255Z,2.47
2022-07-26T15:32:58.910Z,2.25
2022-07-26T15:38:01.585Z,5.43
2022-07-26T15:43:03.357Z,4.65
2022-07-26T15:48:14.943Z,2.38
2022-07-26T15:53:19.362Z,2.42
2022-07-26T15:58:21.217Z,4.00
2022-07-26T16:03:22.946Z,2.97
2022-07-26T16:08:24.683Z,2.10
2022-07-26T16:13:26.436Z,2.28
2022-07-26T16:18:28.131Z,2.92
2022-07-26T16:23:30.157Z,4.20
2022-07-26T16:28:32.121Z,2.67
2022-07-26T16:33:33.880Z,2.67
2022-07-26T16:38:35.950Z,3.38
2022-07-26T16:43:38.231Z,4.07
2022-07-26T16:48:40.167Z,4.22
2022-07-26T16:53:42.155Z,3.53
2022-07-26T16:58:44.868Z,3.20
2022-07-26T17:03:46.668Z,5.32
2022-07-26T17:08:48.415Z,2.40
2022-07-26T17:13:50.193Z,4.03
2022-07-26T17:18:53.089Z,3.03
2022-07-26T17:23:54.926Z,3.38
2022-07-26T17:28:57.155Z,2.30
2022-07-26T17:33:59.103Z,3.75
2022-07-26T17:39:02.425Z,3.25
2022-07-26T17:44:04.830Z,3.42
2022-07-26T17:49:06.642Z,2.60
2022-07-26T17:54:08.968Z,2.17
2022-07-26T17:59:12.906Z,1.90
2022-07-26T18:04:17.126Z,2.15
2022-07-26T18:09:18.862Z,2.08
2022-07-26T18:14:20.714Z,1.67
2022-07-26T18:19:23.167Z,1.52
2022-07-26T18:24:25.694Z,1.52
2022-07-26T18:29:28.046Z,1.75
2022-07-26T18:34:29.816Z,1.00
2022-07-26T18:39:32.853Z,1.00
2022-07-26T18:44:37.944Z,2.47
2022-07-26T18:49:39.868Z,0.90
2022-07-26T18:54:42.227Z,1.23
2022-07-26T18:59:44.046Z,0.80
2022-07-26T19:04:45.782Z,1.70
2022-07-26T19:09:47.525Z,1.13
2022-07-26T19:14:50.026Z,1.40
2022-07-26T19:19:52.913Z,1.98
2022-07-26T19:24:56.524Z,1.30
2022-07-26T19:29:58.204Z,2.08
2022-07-26T19:35:00.139Z,12.27
2022-07-26T19:40:03.682Z,1.42
2022-07-26T19:45:06.348Z,2.85
2022-07-26T19:50:10.097Z,1.20
2022-07-26T19:55:11.856Z,1.30
2022-07-26T20:00:14.028Z,1.20
2022-07-26T20:05:16.121Z,1.60
2022-07-26T20:10:17.881Z,1.33
2022-07-26T20:15:22.447Z,1.55
2022-07-26T20:20:24.233Z,2.55
2022-07-26T20:25:26.297Z,2.30
2022-07-26T20:30:28.297Z,1.92
2022-07-26T20:35:31.393Z,2.13
2022-07-26T20:40:33.219Z,1.02
2022-07-26T20:45:35.905Z,2.08
2022-07-26T20:50:38.075Z,1.50
2022-07-26T20:55:40.540Z,1.88
2022-07-26T21:00:42.298Z,3.40
2022-07-26T21:05:44.964Z,1.38
2022-07-26T21:10:47.664Z,2.78
2022-07-26T21:15:51.265Z,2.65
2022-07-26T21:20:53.244Z,4.10
2022-07-26T21:26:00.456Z,2.70
2022-07-26T21:31:02.839Z,1.88
2022-07-26T21:36:04.936Z,3.00
2022-07-26T21:41:06.700Z,1.92
2022-07-26T21:46:12.584Z,2.95
2022-07-26T21:51:14.977Z,3.13
2022-07-26T21:56:16.690Z,3.42
2022-07-26T22:01:18.617Z,2.13
2022-07-26T22:06:20.652Z,3.63
2022-07-26T22:11:22.452Z,3.08
2022-07-26T22:16:24.225Z,3.33
2022-07-26T22:21:25.968Z,1.52
2022-07-26T22:26:31.164Z,2.70
2022-07-26T22:31:32.990Z,2.65
2022-07-26T22:36:34.782Z,2.28
2022-07-26T22:41:57.647Z,1.88
2022-07-26T22:46:58.200Z,3.35
2022-07-26T22:51:59.959Z,3.35
2022-07-26T22:57:01.762Z,2.28
2022-07-26T23:02:04.175Z,2.65
2022-07-26T23:07:05.890Z,4.85
2022-07-26T23:12:07.960Z,4.38
2022-07-26T23:17:09.664Z,1.38
2022-07-26T23:22:11.628Z,2.38
2022-07-26T23:27:18.061Z,7.28
2022-07-26T23:32:21.660Z,3.03
2022-07-26T23:37:23.369Z,3.33
2022-07-26T23:42:25.098Z,3.15
2022-07-26T23:47:27.001Z,3.13
2022-07-26T23:52:28.730Z,4.50
2022-07-26T23:57:30.445Z,2.67
